createdAt,value
2018-09-30T00:01:40.188Z,99685.31
2018-09-30T00:04:07.754Z,99684.77
2018-09-30T00:06:35.542Z,99654.55
2018-09-30T00:09:04.156Z,99673.22
2018-09-30T00:11:31.607Z,99684.39
2018-09-30T00:13:59.154Z,99681.84
2018-09-30T00:16:26.932Z,99689.65
2018-09-30T00:18:54.369Z,99694.75
2018-09-30T00:21:21.914Z,99692.11
2018-09-30T00:23:55.037Z,99689.83
2018-09-30T00:26:28.324Z,99696.36
2018-09-30T00:28:56.099Z,99684.53
2018-09-30T00:31:23.903Z,99677.92
2018-09-30T00:33:57.012Z,99683.61
2018-09-30T00:36:24.752Z,99671.88
2018-09-30T00:38:52.330Z,99652.17
2018-09-30T00:41:19.847Z,99657.41
2018-09-30T00:43:47.409Z,99654.67
2018-09-30T00:49:13.436Z,99650.34
2018-09-30T00:51:40.981Z,99648.74
2018-09-30T00:54:08.492Z,99640.13
2018-09-30T00:56:36.226Z,99640.43
2018-09-30T00:59:03.797Z,99639.02
2018-09-30T01:01:31.290Z,99625.77
2018-09-30T01:03:59.004Z,99623.12
2018-09-30T01:06:26.527Z,99631.07
2018-09-30T01:08:54.163Z,99624.08
2018-09-30T01:11:21.967Z,99613.95
2018-09-30T01:13:49.464Z,99614.32
2018-09-30T01:16:17.048Z,99617.83
2018-09-30T01:18:44.907Z,99621.71
2018-09-30T01:21:12.447Z,99616.97
2018-09-30T01:23:39.972Z,99617.92
2018-09-30T01:26:07.691Z,99605.14
2018-09-30T01:28:35.439Z,99605.64
2018-09-30T01:31:03.055Z,99603.45
2018-09-30T01:33:30.809Z,99610.84
2018-09-30T01:35:58.322Z,99604.59
2018-09-30T01:38:25.961Z,99594.77
2018-09-30T01:40:53.567Z,99599.02
2018-09-30T01:43:21.098Z,99595.81
2018-09-30T01:45:48.852Z,99590.42
2018-09-30T01:48:16.777Z,99582.84
2018-09-30T01:50:44.255Z,99588.60
2018-09-30T01:53:11.698Z,99584.63
2018-09-30T01:55:39.512Z,99587.19
2018-09-30T01:58:07.015Z,99595.53
2018-09-30T02:00:34.580Z,99590.97
2018-09-30T02:03:02.157Z,99590.41
2018-09-30T02:05:29.685Z,99591.73
2018-09-30T02:07:57.161Z,99575.48
2018-09-30T02:10:24.709Z,99579.36
2018-09-30T02:12:52.229Z,99566.20
2018-09-30T02:15:19.682Z,99558.36
2018-09-30T02:17:47.366Z,99566.30
2018-09-30T02:20:14.862Z,99560.05
2018-09-30T02:22:42.323Z,99569.31
2018-09-30T02:25:10.274Z,99560.81
2018-09-30T02:27:37.795Z,99556.34
2018-09-30T02:30:05.791Z,99551.91
2018-09-30T02:32:33.591Z,99548.70
2018-09-30T02:35:01.070Z,99551.72
2018-09-30T02:37:28.538Z,99559.11
2018-09-30T02:39:56.271Z,99547.45
2018-09-30T02:42:24.095Z,99550.02
2018-09-30T02:44:51.614Z,99547.17
2018-09-30T02:47:19.449Z,99543.00
2018-09-30T02:49:46.933Z,99532.23
2018-09-30T02:52:14.427Z,99534.86
2018-09-30T02:54:42.202Z,99534.77
2018-09-30T02:57:09.705Z,99543.02
2018-09-30T02:59:37.263Z,99535.89
2018-09-30T03:02:05.054Z,99536.66
2018-09-30T03:04:32.550Z,99535.60
2018-09-30T03:07:05.544Z,99535.91
2018-09-30T03:09:33.293Z,99533.52
2018-09-30T03:12:00.763Z,99534.28
2018-09-30T03:14:28.260Z,99533.22
2018-09-30T03:16:56.115Z,99529.52
2018-09-30T03:19:23.765Z,99538.13
2018-09-30T03:21:51.258Z,99534.52
2018-09-30T03:24:18.879Z,99525.17
2018-09-30T03:26:46.318Z,99528.95
2018-09-30T03:29:13.807Z,99487.18
2018-09-30T03:31:41.675Z,99521.47
2018-09-30T03:34:09.195Z,99483.01
2018-09-30T03:36:36.712Z,99533.00
2018-09-30T03:39:35.387Z,99528.45
2018-09-30T03:42:02.792Z,99520.50
2018-09-30T03:44:30.277Z,99523.98
2018-09-30T03:46:57.908Z,99524.84
2018-09-30T03:49:25.387Z,99534.98
2018-09-30T03:51:52.883Z,99542.44
2018-09-30T03:54:20.663Z,99535.55
2018-09-30T03:56:48.202Z,99534.22
2018-09-30T03:59:15.724Z,99537.73
2018-09-30T04:01:43.498Z,99539.42
2018-09-30T04:04:10.993Z,99532.53
2018-09-30T04:06:38.615Z,99526.73
2018-09-30T04:09:08.531Z,99530.25
2018-09-30T04:11:36.339Z,99531.58
2018-09-30T04:14:03.875Z,99530.61
2018-09-30T04:16:31.778Z,99530.15
2018-09-30T04:18:59.290Z,99528.45
2018-09-30T04:21:26.786Z,99531.47
2018-09-30T04:23:59.833Z,99520.87
2018-09-30T04:26:27.242Z,99525.70
2018-09-30T04:28:54.683Z,99524.64
2018-09-30T04:31:22.407Z,99517.45
2018-09-30T04:33:50.292Z,99518.02
2018-09-30T04:36:17.813Z,99513.68
2018-09-30T04:38:45.662Z,99518.98
2018-09-30T04:41:13.122Z,99525.11
2018-09-30T04:43:40.669Z,99520.67
2018-09-30T04:46:08.279Z,99518.78
2018-09-30T04:48:35.779Z,99514.30
2018-09-30T04:51:03.335Z,99506.75
2018-09-30T04:53:31.013Z,99516.49
2018-09-30T04:55:58.452Z,99516.03
2018-09-30T04:58:26.065Z,99461.52
2018-09-30T05:00:53.619Z,99516.59
2018-09-30T05:03:21.156Z,99517.82
2018-09-30T05:05:48.705Z,99516.03
2018-09-30T05:08:16.314Z,99514.70
2018-09-30T05:10:43.858Z,99521.80
2018-09-30T05:13:11.658Z,99525.41
2018-09-30T05:15:39.319Z,99525.67
2018-09-30T05:18:06.819Z,99512.35
2018-09-30T05:20:34.358Z,99522.55
2018-09-30T05:23:01.973Z,99522.55
2018-09-30T05:25:29.454Z,99522.06
2018-09-30T05:27:56.949Z,99530.97
2018-09-30T05:30:24.623Z,99527.46
2018-09-30T05:32:52.132Z,99529.19
2018-09-30T05:35:19.923Z,99524.61
2018-09-30T05:37:47.892Z,99528.87
2018-09-30T05:40:15.358Z,99526.13
2018-09-30T05:42:42.899Z,99519.20
2018-09-30T05:45:10.660Z,99522.25
2018-09-30T05:47:38.126Z,99517.05
2018-09-30T05:50:05.878Z,99514.20
2018-09-30T05:52:33.652Z,99527.62
2018-09-30T05:55:01.157Z,99524.77
2018-09-30T05:57:28.863Z,99527.05
2018-09-30T05:59:56.551Z,99523.17
2018-09-30T06:02:24.083Z,99517.22
2018-09-30T06:04:51.602Z,99521.45
2018-09-30T06:07:19.342Z,99533.22
2018-09-30T06:09:46.815Z,99531.03
2018-09-30T06:12:14.291Z,99537.56
2018-09-30T06:14:42.109Z,99531.80
2018-09-30T06:17:09.554Z,99532.52
2018-09-30T06:19:37.096Z,99531.95
2018-09-30T06:22:04.790Z,99536.59
2018-09-30T06:24:32.292Z,99527.20
2018-09-30T06:26:59.793Z,99531.55
2018-09-30T06:29:27.538Z,99531.34
2018-09-30T06:31:55.013Z,99529.55
2018-09-30T06:34:22.519Z,99526.04
2018-09-30T06:36:50.357Z,99531.34
2018-09-30T06:39:17.833Z,99538.34
2018-09-30T06:41:45.356Z,99533.43
2018-09-30T06:44:13.279Z,99539.09
2018-09-30T06:46:40.788Z,99544.41
2018-09-30T06:49:08.262Z,99543.94
2018-09-30T06:51:35.956Z,99536.81
2018-09-30T06:54:03.520Z,99546.48
2018-09-30T06:56:30.970Z,99543.23
2018-09-30T06:58:58.767Z,99547.88
2018-09-30T07:01:26.288Z,99552.22
2018-09-30T07:03:53.694Z,99544.16
2018-09-30T07:06:21.314Z,99546.59
2018-09-30T07:08:48.890Z,99554.39
2018-09-30T07:11:16.385Z,99554.28
2018-09-30T07:13:43.921Z,99556.73
2018-09-30T07:16:11.561Z,99559.55
2018-09-30T07:18:39.046Z,99567.77
2018-09-30T07:21:06.702Z,99557.05
2018-09-30T07:23:34.212Z,99554.30
2018-09-30T07:26:01.760Z,99562.65
2018-09-30T07:28:29.409Z,99560.00
2018-09-30T07:30:56.904Z,99559.03
2018-09-30T07:33:24.439Z,99565.95
2018-09-30T07:35:52.016Z,99570.59
2018-09-30T07:38:19.826Z,99571.35
2018-09-30T07:40:47.320Z,99578.61
2018-09-30T07:43:14.871Z,99581.81
2018-09-30T07:45:42.747Z,99583.03
2018-09-30T07:48:10.306Z,99587.41
2018-09-30T07:50:38.084Z,99587.31
2018-09-30T07:53:05.650Z,99591.34
2018-09-30T07:55:33.212Z,99590.17
2018-09-30T07:58:00.897Z,99595.12
2018-09-30T08:00:28.382Z,99593.22
2018-09-30T08:02:55.908Z,99585.52
2018-09-30T08:05:23.737Z,99579.73
2018-09-30T08:07:51.248Z,99580.45
2018-09-30T08:10:18.749Z,99586.16
2018-09-30T08:12:46.437Z,99583.87
2018-09-30T08:15:13.895Z,99584.41
2018-09-30T08:17:41.446Z,99582.87
2018-09-30T08:20:09.143Z,99590.99
2018-09-30T08:22:36.754Z,99589.34
2018-09-30T08:25:04.397Z,99589.99
2018-09-30T08:27:32.041Z,99584.68
2018-09-30T08:29:59.565Z,99594.95
2018-09-30T08:32:27.127Z,99594.84
2018-09-30T08:34:54.804Z,99588.45
2018-09-30T08:37:27.813Z,99585.22
2018-09-30T08:39:55.937Z,99587.17
2018-09-30T08:42:23.502Z,99585.16
2018-09-30T08:44:51.137Z,99581.42
2018-09-30T08:47:19.130Z,99590.41
2018-09-30T08:49:46.639Z,99598.20
2018-09-30T08:52:14.152Z,99591.34
2018-09-30T08:54:41.902Z,99590.36
2018-09-30T08:57:09.408Z,99588.46
2018-09-30T08:59:36.900Z,99585.70
2018-09-30T09:02:04.700Z,99591.63
2018-09-30T09:04:32.243Z,99588.86
2018-09-30T09:06:59.758Z,99582.11
2018-09-30T09:09:27.354Z,99581.05
2018-09-30T09:11:54.871Z,99577.10
2018-09-30T09:14:22.591Z,99582.34
2018-09-30T09:16:50.190Z,99583.27
2018-09-30T09:19:17.804Z,99584.05
2018-09-30T09:24:21.208Z,99575.76
2018-09-30T09:26:48.795Z,99577.97
2018-09-30T09:29:16.293Z,99576.59
2018-09-30T09:31:44.180Z,99576.61
2018-09-30T09:34:11.623Z,99572.52
2018-09-30T09:36:39.167Z,99581.39
2018-09-30T09:39:08.955Z,99583.48
2018-09-30T09:41:36.954Z,99583.06
2018-09-30T09:44:04.433Z,99583.55
2018-09-30T09:46:32.043Z,99589.89
2018-09-30T09:48:59.698Z,99587.50
2018-09-30T09:51:27.253Z,99588.61
2018-09-30T09:53:54.877Z,99584.61
2018-09-30T09:56:22.388Z,99589.95
2018-09-30T09:58:49.989Z,99593.37
2018-09-30T10:01:17.620Z,99593.41
2018-09-30T10:03:45.122Z,99601.88
2018-09-30T10:06:12.637Z,99603.73
2018-09-30T10:08:40.214Z,99602.51
2018-09-30T10:11:07.830Z,99598.39
2018-09-30T10:13:35.324Z,99598.28
2018-09-30T10:16:03.026Z,99593.93
2018-09-30T10:18:30.593Z,99602.52
2018-09-30T10:20:58.119Z,99596.72
2018-09-30T10:23:25.968Z,99595.89
2018-09-30T10:25:53.408Z,99595.08
2018-09-30T10:28:20.890Z,99588.30
2018-09-30T10:30:48.433Z,99596.91
2018-09-30T10:33:16.062Z,99589.66
2018-09-30T10:35:43.559Z,99584.20
2018-09-30T10:38:11.143Z,99591.02
2018-09-30T10:40:38.619Z,99587.88
2018-09-30T10:43:06.321Z,99590.41
2018-09-30T10:45:33.877Z,99563.50
2018-09-30T10:48:01.326Z,99588.98
2018-09-30T10:50:28.988Z,99590.79
2018-09-30T10:52:56.756Z,99591.77
2018-09-30T10:55:24.340Z,99598.79
2018-09-30T10:57:51.859Z,99602.79
2018-09-30T11:00:19.517Z,99602.44
2018-09-30T11:02:46.980Z,99604.48
2018-09-30T11:05:14.493Z,99597.22
2018-09-30T11:07:42.076Z,99603.52
2018-09-30T11:10:09.591Z,99608.97
2018-09-30T11:12:37.061Z,99609.09
2018-09-30T11:15:04.961Z,99608.74
2018-09-30T11:17:32.476Z,99613.09
2018-09-30T11:19:59.971Z,99610.43
2018-09-30T11:22:27.680Z,99613.95
2018-09-30T11:24:55.203Z,99617.09
2018-09-30T11:27:22.694Z,99617.45
2018-09-30T11:29:50.343Z,99621.59
2018-09-30T11:32:17.925Z,99614.93
2018-09-30T11:34:45.362Z,99617.72
2018-09-30T11:37:13.383Z,99619.05
2018-09-30T11:39:41.606Z,99612.63
2018-09-30T11:42:09.111Z,99610.55
2018-09-30T11:44:37.052Z,99612.98
2018-09-30T11:47:04.633Z,99612.36
2018-09-30T11:49:32.091Z,99615.75
2018-09-30T11:52:00.090Z,99610.80
2018-09-30T11:54:27.539Z,99577.34
2018-09-30T11:56:55.102Z,99617.97
2018-09-30T11:59:22.984Z,99616.52
2018-09-30T12:01:50.508Z,99624.17
2018-09-30T12:04:18.064Z,99622.70
2018-09-30T12:06:45.714Z,99633.00
2018-09-30T12:09:13.246Z,99624.33
2018-09-30T12:11:40.843Z,99625.39
2018-09-30T12:14:08.386Z,99621.95
2018-09-30T12:16:35.885Z,99615.11
2018-09-30T12:19:03.372Z,99616.62
2018-09-30T12:21:31.013Z,99616.19
2018-09-30T12:23:58.520Z,99625.67
2018-09-30T12:26:26.044Z,99614.81
2018-09-30T12:28:53.711Z,99622.84
2018-09-30T12:31:21.220Z,99614.95
2018-09-30T12:33:48.725Z,99617.28
2018-09-30T12:36:16.389Z,99617.40
2018-09-30T12:38:43.901Z,99611.09
2018-09-30T12:41:11.419Z,99610.82
2018-09-30T12:43:39.040Z,99612.16
2018-09-30T12:46:06.795Z,99603.30
2018-09-30T12:48:34.336Z,99612.44
2018-09-30T12:51:02.045Z,99614.42
2018-09-30T12:53:29.602Z,99615.97
2018-09-30T12:55:57.086Z,99618.72
2018-09-30T12:58:24.844Z,99617.94
2018-09-30T13:00:52.500Z,99622.33
2018-09-30T13:03:20.121Z,99621.22
2018-09-30T13:05:47.823Z,99625.61
2018-09-30T13:08:15.416Z,99620.64
2018-09-30T13:10:42.895Z,99618.75
2018-09-30T13:13:10.431Z,99617.70
2018-09-30T13:15:38.205Z,99625.09
2018-09-30T13:18:05.909Z,99620.59
2018-09-30T13:20:33.447Z,99621.06
2018-09-30T13:23:01.100Z,99608.25
2018-09-30T13:25:28.615Z,99623.85
2018-09-30T13:27:56.207Z,99624.61
2018-09-30T13:30:23.985Z,99627.09
2018-09-30T13:32:51.502Z,99624.69
2018-09-30T13:35:18.963Z,99627.13
2018-09-30T13:37:46.708Z,99626.16
2018-09-30T13:40:14.287Z,99627.98
2018-09-30T13:42:41.697Z,99630.09
2018-09-30T13:45:09.458Z,99629.30
2018-09-30T13:47:37.167Z,99638.61
2018-09-30T13:50:04.912Z,99632.91
2018-09-30T13:52:32.653Z,99628.37
2018-09-30T13:55:00.226Z,99626.89
2018-09-30T13:57:27.834Z,99632.97
2018-09-30T13:59:55.542Z,99624.94
2018-09-30T14:02:23.105Z,99630.78
2018-09-30T14:04:50.586Z,99631.16
2018-09-30T14:07:18.302Z,99626.06
2018-09-30T14:09:45.803Z,99638.67
2018-09-30T14:12:13.335Z,99639.22
2018-09-30T14:14:41.117Z,99631.97
2018-09-30T14:17:08.621Z,99639.22
2018-09-30T14:19:36.164Z,99645.97
2018-09-30T14:22:03.777Z,99645.65
2018-09-30T14:24:31.317Z,99651.55
2018-09-30T14:26:58.922Z,99653.66
2018-09-30T14:29:26.533Z,99660.03
2018-09-30T14:31:54.009Z,99624.92
2018-09-30T14:34:21.547Z,99655.28
2018-09-30T14:36:49.177Z,99666.03
2018-09-30T14:39:16.659Z,99669.47
2018-09-30T14:41:44.249Z,99672.58
2018-09-30T14:44:12.054Z,99676.73
2018-09-30T14:46:39.691Z,99674.45
2018-09-30T14:49:07.504Z,99680.28
2018-09-30T14:51:35.104Z,99673.37
2018-09-30T14:54:02.668Z,99679.59
2018-09-30T14:56:30.174Z,99681.05
2018-09-30T14:58:57.841Z,99690.92
2018-09-30T15:01:25.356Z,99690.93
2018-09-30T15:03:52.905Z,99685.36
2018-09-30T15:06:20.586Z,99686.61
2018-09-30T15:08:48.142Z,99684.53
2018-09-30T15:11:15.556Z,99688.20
2018-09-30T15:13:43.320Z,99694.27
2018-09-30T15:16:10.948Z,99696.21
2018-09-30T15:18:38.516Z,99692.81
2018-09-30T15:21:06.072Z,99696.47
2018-09-30T15:23:33.561Z,99696.72
2018-09-30T15:26:01.204Z,99707.31
2018-09-30T15:28:28.977Z,99708.17
2018-09-30T15:30:56.532Z,99707.20
2018-09-30T15:33:24.054Z,99704.44
2018-09-30T15:35:51.585Z,99709.17
2018-09-30T15:38:19.194Z,99711.00
2018-09-30T15:40:46.704Z,99715.12
2018-09-30T15:43:14.293Z,99719.63
2018-09-30T15:45:41.842Z,99728.99
2018-09-30T15:48:09.292Z,99734.47
2018-09-30T15:50:37.223Z,99734.34
2018-09-30T15:53:04.859Z,99733.73
2018-09-30T15:55:32.443Z,99744.90
2018-09-30T15:58:00.374Z,99739.41
2018-09-30T16:00:27.852Z,99747.63
2018-09-30T16:02:55.355Z,99748.73
2018-09-30T16:05:23.044Z,99759.41
2018-09-30T16:07:51.377Z,99761.22
2018-09-30T16:10:19.471Z,99760.09
2018-09-30T16:12:47.206Z,99760.21
2018-09-30T16:15:14.710Z,99755.46
2018-09-30T16:17:42.186Z,99764.68
2018-09-30T16:20:09.801Z,99771.67
2018-09-30T16:22:37.279Z,99769.12
2018-09-30T16:25:04.873Z,99776.41
2018-09-30T16:27:32.555Z,99774.21
2018-09-30T16:30:00.142Z,99777.97
2018-09-30T16:32:27.596Z,99780.87
2018-09-30T16:34:55.208Z,99776.48
2018-09-30T16:37:22.711Z,99792.48
2018-09-30T16:39:50.150Z,99795.37
2018-09-30T16:42:17.701Z,99801.22
2018-09-30T16:44:45.277Z,99795.25
2018-09-30T16:47:12.770Z,99795.84
2018-09-30T16:49:40.471Z,99802.02
2018-09-30T16:52:08.160Z,99805.63
2018-09-30T16:54:35.643Z,99802.31
2018-09-30T16:57:03.309Z,99799.59
2018-09-30T16:59:30.780Z,99798.59
2018-09-30T17:01:58.251Z,99793.72
2018-09-30T17:04:25.905Z,99800.25
2018-09-30T17:06:53.498Z,99800.70
2018-09-30T17:09:20.951Z,99805.97
2018-09-30T17:11:48.532Z,99809.08
2018-09-30T17:14:15.971Z,99818.37
2018-09-30T17:16:43.529Z,99821.84
2018-09-30T17:19:11.185Z,99825.80
2018-09-30T17:21:38.703Z,99820.20
2018-09-30T17:24:06.250Z,99824.20
2018-09-30T17:26:33.906Z,99833.84
2018-09-30T17:29:01.493Z,99837.44
2018-09-30T17:31:28.983Z,99840.22
2018-09-30T17:33:56.837Z,99848.67
2018-09-30T17:36:24.352Z,99846.88
2018-09-30T17:38:51.874Z,99838.48
2018-09-30T17:41:19.598Z,99851.44
2018-09-30T17:43:47.100Z,99852.62
2018-09-30T17:46:14.584Z,99854.72
2018-09-30T17:48:42.294Z,99858.92
2018-09-30T17:51:09.859Z,99856.11
2018-09-30T17:53:37.403Z,99858.59
2018-09-30T17:56:05.328Z,99830.02
2018-09-30T17:58:32.826Z,99862.00
2018-09-30T18:01:00.412Z,99870.41
2018-09-30T18:03:28.106Z,99835.05
2018-09-30T18:05:55.585Z,99871.50
2018-09-30T18:08:23.045Z,99879.59
2018-09-30T18:10:50.855Z,99878.47
2018-09-30T18:13:18.356Z,99883.89
2018-09-30T18:15:45.842Z,99876.12
2018-09-30T18:18:28.234Z,99877.92
2018-09-30T18:20:55.709Z,99884.52
2018-09-30T18:23:23.220Z,99885.89
2018-09-30T18:25:50.911Z,99885.70
2018-09-30T18:28:18.334Z,99894.60
2018-09-30T18:30:45.820Z,99894.91
2018-09-30T18:33:13.379Z,99892.45
2018-09-30T18:35:40.968Z,99891.23
2018-09-30T18:38:08.552Z,99894.48
2018-09-30T18:40:42.964Z,99903.03
2018-09-30T18:43:11.020Z,99887.39
2018-09-30T18:45:38.570Z,99906.00
2018-09-30T18:48:06.276Z,99907.89
2018-09-30T18:50:34.049Z,99873.72
2018-09-30T18:53:01.735Z,99910.95
2018-09-30T18:55:29.627Z,99905.84
2018-09-30T18:57:57.646Z,99905.28
2018-09-30T19:00:25.149Z,99904.25
2018-09-30T19:02:52.973Z,99909.30
2018-09-30T19:05:20.641Z,99910.37
2018-09-30T19:07:48.030Z,99907.05
2018-09-30T19:10:15.648Z,99900.30
2018-09-30T19:12:43.194Z,99900.80
2018-09-30T19:15:10.698Z,99905.58
2018-09-30T19:17:38.330Z,99906.34
2018-09-30T19:20:06.049Z,99902.28
2018-09-30T19:22:33.548Z,99899.05
2018-09-30T19:25:01.366Z,99890.62
2018-09-30T19:27:28.840Z,99895.26
2018-09-30T19:29:56.403Z,99895.75
2018-09-30T19:32:24.087Z,99893.73
2018-09-30T19:34:51.555Z,99894.41
2018-09-30T19:37:19.115Z,99902.08
2018-09-30T19:39:46.717Z,99901.52
2018-09-30T19:42:14.241Z,99903.98
2018-09-30T19:44:42.112Z,99914.97
2018-09-30T19:47:10.112Z,99875.73
2018-09-30T19:49:37.615Z,99912.91
2018-09-30T19:52:05.082Z,99923.03
2018-09-30T19:54:32.695Z,99927.42
2018-09-30T19:57:00.549Z,99925.59
2018-09-30T19:59:27.980Z,99930.08
2018-09-30T20:01:55.512Z,99932.63
2018-09-30T20:04:23.037Z,99936.53
2018-09-30T20:06:50.511Z,99931.02
2018-09-30T20:09:18.239Z,99939.94
2018-09-30T20:11:45.745Z,99890.55
2018-09-30T20:14:13.210Z,99938.44
2018-09-30T20:16:41.093Z,99946.97
2018-09-30T20:19:08.570Z,99946.20
2018-09-30T20:21:36.063Z,99937.49
2018-09-30T20:24:03.674Z,99943.92
2018-09-30T20:26:31.239Z,99941.09
2018-09-30T20:28:58.821Z,99945.73
2018-09-30T20:31:26.499Z,99947.61
2018-09-30T20:33:54.038Z,99953.97
2018-09-30T20:36:21.555Z,99941.66
2018-09-30T20:38:49.308Z,99943.08
2018-09-30T20:41:16.834Z,99940.52
2018-09-30T20:43:44.353Z,99948.58
2018-09-30T20:46:12.196Z,99946.54
2018-09-30T20:48:39.705Z,99942.66
2018-09-30T20:51:07.156Z,99945.95
2018-09-30T20:53:34.924Z,99946.05
2018-09-30T20:56:02.472Z,99948.42
2018-09-30T20:58:30.380Z,99950.41
2018-09-30T21:00:57.961Z,99957.72
2018-09-30T21:03:25.423Z,99956.64
2018-09-30T21:06:09.070Z,99958.64
2018-09-30T21:08:36.614Z,99959.38
2018-09-30T21:11:04.149Z,99960.61
2018-09-30T21:13:31.801Z,99956.91
2018-09-30T21:15:59.972Z,99955.77
2018-09-30T21:18:27.391Z,99957.73
2018-09-30T21:20:55.054Z,99956.22
2018-09-30T21:23:22.710Z,99951.55
2018-09-30T21:25:50.299Z,99945.94
2018-09-30T21:28:18.028Z,99957.59
2018-09-30T21:30:45.819Z,99964.77
2018-09-30T21:33:13.583Z,99964.11
2018-09-30T21:35:41.244Z,99965.13
2018-09-30T21:38:08.772Z,99963.70
2018-09-30T21:40:36.310Z,99965.20
2018-09-30T21:43:03.981Z,99969.36
2018-09-30T21:45:31.518Z,99973.14
2018-09-30T21:47:59.036Z,99971.95
2018-09-30T21:50:26.725Z,99977.83
2018-09-30T21:52:54.248Z,99978.09
2018-09-30T21:55:21.810Z,99963.29
2018-09-30T21:57:49.694Z,99960.24
2018-09-30T22:01:20.481Z,99969.87
2018-09-30T22:03:48.190Z,99968.86
2018-09-30T22:06:15.706Z,99975.19
2018-09-30T22:08:43.180Z,99969.11
2018-09-30T22:11:10.807Z,99978.96
2018-09-30T22:13:38.470Z,99983.02
2018-09-30T22:16:06.108Z,99986.22
2018-09-30T22:18:33.786Z,99988.57
2018-09-30T22:21:01.322Z,99981.34
2018-09-30T22:23:28.829Z,99995.61
2018-09-30T22:25:56.405Z,99994.46
2018-09-30T22:28:23.856Z,99991.98
2018-09-30T22:30:51.354Z,100000.84
2018-09-30T22:33:19.032Z,100000.09
2018-09-30T22:35:46.531Z,99997.12
2018-09-30T22:38:14.066Z,100000.80
2018-09-30T22:40:41.713Z,100002.67
2018-09-30T22:43:09.247Z,99996.21
2018-09-30T22:45:36.722Z,100005.19
2018-09-30T22:48:04.592Z,100001.30
2018-09-30T22:50:32.134Z,100001.84
2018-09-30T22:52:59.652Z,100005.03
2018-09-30T22:55:27.311Z,100003.49
2018-09-30T22:57:54.881Z,100016.44
2018-09-30T23:00:22.422Z,100015.19
2018-09-30T23:02:50.542Z,100013.08
2018-09-30T23:05:18.035Z,100006.55
2018-09-30T23:07:45.570Z,100008.91
2018-09-30T23:10:13.405Z,100014.20
2018-09-30T23:12:41.230Z,100008.12
2018-09-30T23:15:08.875Z,100018.70
2018-09-30T23:17:36.460Z,100012.09
2018-09-30T23:20:04.101Z,100021.02
2018-09-30T23:22:31.622Z,100023.30
2018-09-30T23:24:59.344Z,100032.26
2018-09-30T23:27:26.903Z,100027.05
2018-09-30T23:29:54.471Z,100031.47
2018-09-30T23:32:22.169Z,100033.66
2018-09-30T23:34:49.682Z,100029.77
2018-09-30T23:37:17.207Z,100030.23
2018-09-30T23:39:44.835Z,100023.23
2018-09-30T23:42:12.337Z,100022.83
2018-09-30T23:44:39.871Z,100031.80
2018-09-30T23:47:07.623Z,100026.20
2018-09-30T23:49:35.144Z,100021.83
2018-09-30T23:52:02.711Z,100030.70
2018-09-30T23:54:30.577Z,100032.56
2018-09-30T23:56:58.067Z,100033.14
2018-09-30T23:59:25.575Z,100038.88
